Time;durP1;ratioP1;P1;durP2;ratioP2;P2;SDS_P1;SDS_P2;PMS_P1;PMS_P2;Temp;Humidity;BMP_temperature;BMP_pressure;BME280_temperature;BME280_humidity;BME280_pressure;Samples;Min_cycle;Max_cycle;Signal;HPM_P1;HPM_P2
2021/10/13 00:00:26;;;;;;;;;15.50;10.25;;;;;;;;5014945;28;45254;-69
2021/10/13 00:02:51;;;;;;;;;13.50;11.50;;;;;;;;5015673;28;46779;-68
2021/10/13 00:05:17;;;;;;;;;15.25;11.75;;;;;;;;5017940;28;45379;-67
2021/10/13 00:07:42;;;;;;;;;12.25;11.25;;;;;;;;5018469;28;45271;-67
2021/10/13 00:10:07;;;;;;;;;13.50;13.50;;;;;;;;5018958;28;45323;-69
2021/10/13 00:12:34;;;;;;;;;12.75;12.00;;;;;;;;5018164;28;45571;-68
2021/10/13 00:14:59;;;;;;;;;13.75;13.75;;;;;;;;5018466;28;45355;-69
2021/10/13 00:17:25;;;;;;;;;15.25;11.00;;;;;;;;5016969;28;45181;-70
2021/10/13 00:19:50;;;;;;;;;12.75;12.75;;;;;;;;5017130;28;45381;-69
2021/10/13 00:22:15;;;;;;;;;13.50;11.50;;;;;;;;5018189;28;45426;-70
2021/10/13 00:24:40;;;;;;;;;16.25;13.00;;;;;;;;5018229;28;45371;-69
2021/10/13 00:27:06;;;;;;;;;16.00;12.00;;;;;;;;5018797;28;45476;-69
2021/10/13 00:29:32;;;;;;;;;13.00;11.50;;;;;;;;5018707;28;45533;-69
2021/10/13 00:31:58;;;;;;;;;11.00;10.75;;;;;;;;5018013;28;46127;-69
2021/10/13 00:34:23;;;;;;;;;13.25;12.75;;;;;;;;5017692;28;45430;-68
2021/10/13 00:36:48;;;;;;;;;12.25;11.25;;;;;;;;5018063;28;45351;-68
2021/10/13 00:39:13;;;;;;;;;13.75;11.25;;;;;;;;5018281;28;45374;-68
2021/10/13 00:41:38;;;;;;;;;13.25;11.75;;;;;;;;5018088;28;45471;-68
2021/10/13 00:44:04;;;;;;;;;17.25;11.75;;;;;;;;5017701;28;45632;-69
2021/10/13 00:46:29;;;;;;;;;13.25;11.00;;;;;;;;5016574;28;45401;-68
2021/10/13 00:48:54;;;;;;;;;15.75;13.25;;;;;;;;5016653;28;45325;-68
2021/10/13 00:51:20;;;;;;;;;10.25;10.25;;;;;;;;5017373;28;45440;-70
2021/10/13 00:53:45;;;;;;;;;14.00;12.00;;;;;;;;5017539;28;45349;-67
2021/10/13 00:56:10;;;;;;;;;17.25;13.75;;;;;;;;5016516;28;45574;-67
2021/10/13 00:58:35;;;;;;;;;15.25;13.00;;;;;;;;5017836;28;45313;-67
2021/10/13 01:01:04;;;;;;;;;16.50;13.50;;;;;;;;5015996;28;47531;-68
2021/10/13 01:03:50;;;;;;;;;13.00;12.25;;;;;;;;5017338;28;45324;-68
2021/10/13 01:06:40;;;;;;;;;16.25;12.00;;;;;;;;5016170;28;45258;-68
2021/10/13 01:09:15;;;;;;;;;12.00;11.50;;;;;;;;5017724;28;45567;-67
2021/10/13 01:11:51;;;;;;;;;15.25;12.75;;;;;;;;5017538;28;46623;-68
2021/10/13 01:14:19;;;;;;;;;13.00;10.25;;;;;;;;5016487;28;45313;-68
2021/10/13 01:17:11;;;;;;;;;15.50;13.25;;;;;;;;5017291;28;45359;-70
2021/10/13 01:19:37;;;;;;;;;14.75;13.50;;;;;;;;5009205;28;45476;-70
2021/10/13 01:22:05;;;;;;;;;13.00;12.50;;;;;;;;5017041;28;45318;-68
2021/10/13 01:24:33;;;;;;;;;17.75;14.00;;;;;;;;5016937;28;45492;-69
2021/10/13 01:27:17;;;;;;;;;14.75;13.00;;;;;;;;5017199;28;45417;-69
2021/10/13 01:29:43;;;;;;;;;12.00;10.75;;;;;;;;5017784;28;45485;-69
2021/10/13 01:32:13;;;;;;;;;16.25;14.00;;;;;;;;5018006;28;45267;-69
2021/10/13 01:34:40;;;;;;;;;16.50;15.25;;;;;;;;5017471;28;45316;-68
2021/10/13 01:37:18;;;;;;;;;15.50;13.00;;;;;;;;5017072;28;45419;-68
2021/10/13 01:39:44;;;;;;;;;13.75;13.00;;;;;;;;5017292;28;45841;-67
2021/10/13 01:42:10;;;;;;;;;14.50;14.50;;;;;;;;5016861;28;45464;-67
2021/10/13 01:44:36;;;;;;;;;15.25;13.50;;;;;;;;5015332;28;45497;-67
2021/10/13 01:47:02;;;;;;;;;18.50;16.00;;;;;;;;5016901;28;45367;-68
2021/10/13 01:49:31;;;;;;;;;15.25;13.00;;;;;;;;5016989;28;45153;-67
2021/10/13 01:51:56;;;;;;;;;18.75;12.75;;;;;;;;5015445;28;45433;-67
2021/10/13 01:54:22;;;;;;;;;17.00;13.00;;;;;;;;5016585;28;45265;-68
2021/10/13 01:56:49;;;;;;;;;13.75;13.25;;;;;;;;5016652;28;45369;-69
2021/10/13 01:59:17;;;;;;;;;10.00;10.00;;;;;;;;5016994;28;45505;-69
2021/10/13 02:01:44;;;;;;;;;15.50;12.25;;;;;;;;5016644;28;45337;-68
2021/10/13 02:04:10;;;;;;;;;21.50;13.25;;;;;;;;5016541;28;45272;-67
2021/10/13 02:06:37;;;;;;;;;16.75;12.75;;;;;;;;5016785;28;45298;-66
2021/10/13 02:09:02;;;;;;;;;17.25;14.75;;;;;;;;5016864;28;45263;-69
2021/10/13 02:11:29;;;;;;;;;14.00;11.00;;;;;;;;5016326;28;45417;-69
2021/10/13 02:13:55;;;;;;;;;15.50;12.75;;;;;;;;5016420;28;45403;-69
2021/10/13 02:16:21;;;;;;;;;14.50;12.25;;;;;;;;5016245;28;45299;-69
2021/10/13 02:18:47;;;;;;;;;11.50;11.50;;;;;;;;5016516;28;45256;-68
2021/10/13 02:21:13;;;;;;;;;12.50;11.75;;;;;;;;5015182;28;48317;-69
2021/10/13 02:23:39;;;;;;;;;13.00;11.50;;;;;;;;5016367;28;45422;-68
2021/10/13 02:26:09;;;;;;;;;13.75;11.00;;;;;;;;5015270;28;45241;-68
2021/10/13 02:28:39;;;;;;;;;13.50;12.00;;;;;;;;5016511;28;45485;-67
2021/10/13 02:31:04;;;;;;;;;10.50;7.50;;;;;;;;5015865;28;46057;-67
2021/10/13 02:33:29;;;;;;;;;10.25;10.25;;;;;;;;5016020;28;45443;-68
2021/10/13 02:35:55;;;;;;;;;10.50;9.00;;;;;;;;5016224;28;45316;-66
2021/10/13 02:38:20;;;;;;;;;11.25;11.25;;;;;;;;5014793;28;45367;-66
2021/10/13 02:40:45;;;;;;;;;13.75;10.00;;;;;;;;5016163;28;46489;-66
2021/10/13 02:43:11;;;;;;;;;10.75;9.75;;;;;;;;5015558;28;45481;-66
2021/10/13 02:45:38;;;;;;;;;11.00;8.00;;;;;;;;5015970;28;45431;-67
2021/10/13 02:48:10;;;;;;;;;8.00;8.00;;;;;;;;5014486;28;45344;-66
2021/10/13 02:50:40;;;;;;;;;11.25;11.00;;;;;;;;5015436;28;45433;-67
2021/10/13 02:53:08;;;;;;;;;9.75;7.00;;;;;;;;5015678;28;45501;-69
2021/10/13 02:55:36;;;;;;;;;9.25;8.00;;;;;;;;5015704;28;45336;-68
2021/10/13 02:58:07;;;;;;;;;11.00;8.00;;;;;;;;5014255;28;45395;-68
2021/10/13 03:00:33;;;;;;;;;10.25;8.00;;;;;;;;5015451;28;46359;-68
2021/10/13 03:03:22;;;;;;;;;9.00;8.75;;;;;;;;5015227;28;45421;-67
2021/10/13 03:05:48;;;;;;;;;9.75;8.00;;;;;;;;5012754;28;45414;-67
2021/10/13 03:08:15;;;;;;;;;12.00;9.75;;;;;;;;5016031;28;45554;-69
2021/10/13 03:10:42;;;;;;;;;6.50;6.00;;;;;;;;5015233;28;45480;-68
2021/10/13 03:13:07;;;;;;;;;8.00;8.00;;;;;;;;5013982;28;46134;-67
2021/10/13 03:15:33;;;;;;;;;8.25;7.50;;;;;;;;5015523;28;45414;-66
2021/10/13 03:17:59;;;;;;;;;11.50;8.00;;;;;;;;5015698;28;45744;-68
2021/10/13 03:20:25;;;;;;;;;7.00;7.00;;;;;;;;5015304;28;46171;-66
2021/10/13 03:22:54;;;;;;;;;8.50;7.00;;;;;;;;5013785;28;45341;-66
2021/10/13 03:25:25;;;;;;;;;8.75;6.25;;;;;;;;5015247;28;45348;-67
2021/10/13 03:27:51;;;;;;;;;7.50;6.00;;;;;;;;5015447;28;45383;-68
2021/10/13 03:30:16;;;;;;;;;8.25;6.75;;;;;;;;5015170;28;45404;-67
2021/10/13 03:32:43;;;;;;;;;9.25;7.25;;;;;;;;5015138;28;45388;-68
2021/10/13 03:35:08;;;;;;;;;9.25;8.50;;;;;;;;5015235;28;45393;-67
2021/10/13 03:37:33;;;;;;;;;8.75;7.25;;;;;;;;5014766;28;45401;-67
2021/10/13 03:39:58;;;;;;;;;9.75;7.00;;;;;;;;5014876;28;45583;-70
2021/10/13 03:42:23;;;;;;;;;8.50;5.75;;;;;;;;5014782;28;45637;-68
2021/10/13 03:44:49;;;;;;;;;8.25;8.25;;;;;;;;5013780;28;45324;-68
2021/10/13 03:47:14;;;;;;;;;10.00;7.00;;;;;;;;5015193;28;45470;-67
2021/10/13 03:49:39;;;;;;;;;11.00;8.00;;;;;;;;5014781;28;46228;-68
2021/10/13 03:52:04;;;;;;;;;9.00;8.00;;;;;;;;5015001;28;45520;-68
2021/10/13 03:54:30;;;;;;;;;9.25;8.25;;;;;;;;5014859;28;45300;-67
2021/10/13 03:56:55;;;;;;;;;11.00;9.75;;;;;;;;5014929;28;45474;-68
2021/10/13 03:59:20;;;;;;;;;7.25;7.25;;;;;;;;5015052;28;45515;-67
2021/10/13 04:01:45;;;;;;;;;11.75;7.50;;;;;;;;5014981;28;45204;-70
2021/10/13 04:04:11;;;;;;;;;9.00;8.25;;;;;;;;5014904;28;45129;-67
2021/10/13 04:06:37;;;;;;;;;9.75;9.00;;;;;;;;5013855;28;45649;-68
2021/10/13 04:09:03;;;;;;;;;7.00;7.00;;;;;;;;5014720;28;46144;-68
2021/10/13 04:11:28;;;;;;;;;10.50;8.00;;;;;;;;5014822;28;45310;-68
2021/10/13 04:13:54;;;;;;;;;9.75;9.00;;;;;;;;5013873;28;45256;-67
2021/10/13 04:16:19;;;;;;;;;9.25;8.50;;;;;;;;5015767;28;45427;-67
2021/10/13 04:18:44;;;;;;;;;12.50;9.00;;;;;;;;5013832;28;46614;-68
2021/10/13 04:21:09;;;;;;;;;12.25;9.25;;;;;;;;5015353;28;45166;-68
2021/10/13 04:23:35;;;;;;;;;14.25;8.00;;;;;;;;5015263;28;45288;-68
2021/10/13 04:26:00;;;;;;;;;9.75;7.25;;;;;;;;5015322;28;45474;-68
2021/10/13 04:28:25;;;;;;;;;9.50;9.00;;;;;;;;5014624;28;45244;-68
2021/10/13 04:30:51;;;;;;;;;12.00;10.25;;;;;;;;5015122;28;45375;-68
2021/10/13 04:33:16;;;;;;;;;9.75;7.75;;;;;;;;5014882;28;45489;-69
2021/10/13 04:35:41;;;;;;;;;10.75;8.00;;;;;;;;5013580;28;45619;-69
2021/10/13 04:38:06;;;;;;;;;10.50;7.25;;;;;;;;5013153;28;47710;-68
2021/10/13 04:40:33;;;;;;;;;15.50;10.25;;;;;;;;5014261;28;45324;-69
2021/10/13 04:42:58;;;;;;;;;14.50;10.50;;;;;;;;5014372;28;45335;-69
2021/10/13 04:45:24;;;;;;;;;11.25;9.25;;;;;;;;5014401;28;45549;-71
2021/10/13 04:47:49;;;;;;;;;11.00;9.25;;;;;;;;5014466;28;46904;-70
2021/10/13 04:50:14;;;;;;;;;10.00;9.75;;;;;;;;5017232;28;45404;-69
2021/10/13 04:52:39;;;;;;;;;8.75;7.75;;;;;;;;5017800;28;45363;-70
2021/10/13 04:55:05;;;;;;;;;12.00;8.00;;;;;;;;5018100;28;45359;-68
2021/10/13 04:57:30;;;;;;;;;11.75;8.50;;;;;;;;5017458;28;46408;-68
2021/10/13 04:59:55;;;;;;;;;10.75;9.00;;;;;;;;5017367;28;45375;-66
2021/10/13 05:02:21;;;;;;;;;10.25;8.25;;;;;;;;5016288;28;45338;-67
2021/10/13 05:04:46;;;;;;;;;11.50;9.00;;;;;;;;5017588;28;45509;-67
2021/10/13 05:07:11;;;;;;;;;8.50;7.50;;;;;;;;5017243;28;45488;-67
2021/10/13 05:09:36;;;;;;;;;10.75;8.00;;;;;;;;5015744;28;45996;-67
2021/10/13 05:12:02;;;;;;;;;12.50;9.00;;;;;;;;5017469;28;45162;-67
2021/10/13 05:14:27;;;;;;;;;10.50;8.00;;;;;;;;5017499;28;45335;-67
2021/10/13 05:16:52;;;;;;;;;10.00;10.00;;;;;;;;5017480;28;45343;-69
2021/10/13 05:19:17;;;;;;;;;15.00;10.25;;;;;;;;5017470;28;45371;-67
2021/10/13 05:21:42;;;;;;;;;10.50;10.50;;;;;;;;5017299;28;45430;-71
2021/10/13 05:24:09;;;;;;;;;12.75;10.00;;;;;;;;5017453;28;45319;-69
2021/10/13 05:26:35;;;;;;;;;13.00;9.25;;;;;;;;5016990;28;46613;-66
2021/10/13 05:29:00;;;;;;;;;12.25;10.50;;;;;;;;5016856;28;45374;-67
2021/10/13 05:31:25;;;;;;;;;13.50;11.00;;;;;;;;5015453;28;45309;-67
2021/10/13 05:33:50;;;;;;;;;10.50;10.50;;;;;;;;5017233;28;45300;-68
2021/10/13 05:36:16;;;;;;;;;10.25;10.25;;;;;;;;5016892;28;45601;-67
2021/10/13 05:38:41;;;;;;;;;9.25;8.00;;;;;;;;5016625;28;45460;-67
2021/10/13 05:41:06;;;;;;;;;13.00;10.75;;;;;;;;5015707;28;45322;-68
2021/10/13 05:43:31;;;;;;;;;11.25;9.50;;;;;;;;5016922;28;45355;-68
2021/10/13 05:45:56;;;;;;;;;13.00;10.50;;;;;;;;5016559;28;45418;-65
2021/10/13 05:48:22;;;;;;;;;12.50;8.50;;;;;;;;5017095;28;45311;-69
2021/10/13 05:50:47;;;;;;;;;14.00;10.50;;;;;;;;5016669;28;45518;-69
2021/10/13 05:53:12;;;;;;;;;13.75;13.75;;;;;;;;5016851;28;45319;-66
2021/10/13 05:55:37;;;;;;;;;24.00;16.50;;;;;;;;5016465;28;46463;-67
2021/10/13 05:58:05;;;;;;;;;14.00;12.00;;;;;;;;5016681;28;45237;-67
2021/10/13 06:00:30;;;;;;;;;11.75;10.25;;;;;;;;5014307;28;45335;-68
2021/10/13 06:02:59;;;;;;;;;10.50;9.75;;;;;;;;5016047;28;45630;-68
2021/10/13 06:05:24;;;;;;;;;11.75;10.00;;;;;;;;5015195;28;48333;-67
2021/10/13 06:07:49;;;;;;;;;11.50;9.25;;;;;;;;5016020;28;45375;-69
2021/10/13 06:10:15;;;;;;;;;17.00;13.00;;;;;;;;5016526;28;45357;-67
2021/10/13 06:12:40;;;;;;;;;11.75;10.00;;;;;;;;5016490;28;45589;-67
2021/10/13 06:15:05;;;;;;;;;12.75;10.75;;;;;;;;5015992;28;46202;-67
2021/10/13 06:17:32;;;;;;;;;15.25;13.25;;;;;;;;5015813;28;45459;-67
2021/10/13 06:19:57;;;;;;;;;10.50;9.00;;;;;;;;5016751;28;45404;-67
2021/10/13 06:22:22;;;;;;;;;12.25;10.50;;;;;;;;5016610;28;45275;-68
2021/10/13 06:24:47;;;;;;;;;10.75;10.75;;;;;;;;5016137;28;46455;-69
2021/10/13 06:27:13;;;;;;;;;11.25;10.75;;;;;;;;5015855;28;45400;-66
2021/10/13 06:29:38;;;;;;;;;11.50;10.25;;;;;;;;5016178;28;45331;-68
2021/10/13 06:32:03;;;;;;;;;14.25;11.00;;;;;;;;5014712;28;45273;-68
2021/10/13 06:34:29;;;;;;;;;15.75;12.50;;;;;;;;5015273;28;45360;-69
2021/10/13 06:36:54;;;;;;;;;14.50;9.50;;;;;;;;5015618;28;45393;-67
2021/10/13 06:39:19;;;;;;;;;15.00;13.50;;;;;;;;5015536;28;45232;-67
2021/10/13 06:41:44;;;;;;;;;15.50;12.00;;;;;;;;5015532;28;45292;-67
2021/10/13 06:44:12;;;;;;;;;10.25;9.75;;;;;;;;5015162;28;45359;-68
2021/10/13 06:46:37;;;;;;;;;19.00;14.75;;;;;;;;5015244;28;45188;-68
2021/10/13 06:49:02;;;;;;;;;20.50;13.75;;;;;;;;5015427;28;45386;-67
2021/10/13 06:51:28;;;;;;;;;13.50;13.25;;;;;;;;5015749;28;45208;-69
2021/10/13 06:53:53;;;;;;;;;11.50;8.25;;;;;;;;5015111;28;46551;-68
2021/10/13 06:56:18;;;;;;;;;20.25;12.50;;;;;;;;5015312;28;45276;-69
2021/10/13 06:58:43;;;;;;;;;16.00;15.25;;;;;;;;5015373;28;45310;-69
2021/10/13 07:01:09;;;;;;;;;15.50;11.75;;;;;;;;5013874;28;45510;-67
2021/10/13 07:03:34;;;;;;;;;12.25;11.25;;;;;;;;5015055;28;45519;-68
2021/10/13 07:05:59;;;;;;;;;17.50;15.00;;;;;;;;5015547;28;45728;-68
2021/10/13 07:08:24;;;;;;;;;14.75;12.50;;;;;;;;5015671;28;45283;-69
2021/10/13 07:10:50;;;;;;;;;12.75;10.25;;;;;;;;5014023;28;45331;-68
2021/10/13 07:13:15;;;;;;;;;15.50;11.50;;;;;;;;5013241;28;47187;-68
2021/10/13 07:15:40;;;;;;;;;11.00;10.75;;;;;;;;5013458;28;45913;-71
2021/10/13 07:18:05;;;;;;;;;13.75;12.00;;;;;;;;5015336;28;45391;-70
2021/10/13 07:20:31;;;;;;;;;12.25;11.75;;;;;;;;5015714;28;45275;-70
2021/10/13 07:22:57;;;;;;;;;11.50;11.50;;;;;;;;5013914;28;47918;-75
2021/10/13 07:25:25;;;;;;;;;15.00;11.50;;;;;;;;5015789;28;45323;-70
2021/10/13 07:27:50;;;;;;;;;15.25;10.00;;;;;;;;5015152;28;45566;-70
2021/10/13 07:30:18;;;;;;;;;21.75;17.25;;;;;;;;5016165;28;45483;-69
2021/10/13 07:32:44;;;;;;;;;11.00;8.50;;;;;;;;5015012;28;45722;-68
2021/10/13 07:35:09;;;;;;;;;12.50;11.00;;;;;;;;5014896;28;45234;-70
2021/10/13 07:37:34;;;;;;;;;16.00;12.50;;;;;;;;5015012;28;45157;-66
2021/10/13 07:40:01;;;;;;;;;14.25;12.25;;;;;;;;5015321;28;45485;-69
2021/10/13 07:42:26;;;;;;;;;10.50;9.25;;;;;;;;5014729;28;45572;-72
2021/10/13 07:44:51;;;;;;;;;16.50;13.75;;;;;;;;5014868;28;45450;-67
2021/10/13 07:47:17;;;;;;;;;26.75;26.50;;;;;;;;5013336;28;45363;-65
2021/10/13 07:49:42;;;;;;;;;13.75;11.50;;;;;;;;5014091;28;45821;-68
2021/10/13 07:52:07;;;;;;;;;15.75;12.50;;;;;;;;5015335;28;45267;-69
2021/10/13 07:54:32;;;;;;;;;12.75;11.00;;;;;;;;5013891;28;45397;-66
2021/10/13 07:56:57;;;;;;;;;16.50;10.25;;;;;;;;5015216;28;45316;-67
2021/10/13 07:59:25;;;;;;;;;11.50;10.50;;;;;;;;5013565;28;45538;-68
2021/10/13 08:01:51;;;;;;;;;13.00;11.00;;;;;;;;5014422;28;45372;-72
2021/10/13 08:04:16;;;;;;;;;10.00;10.00;;;;;;;;5014634;28;45308;-72
2021/10/13 08:06:41;;;;;;;;;14.75;10.00;;;;;;;;5014695;28;45409;-69
2021/10/13 08:09:07;;;;;;;;;14.50;12.00;;;;;;;;5014711;28;45311;-69
2021/10/13 08:11:33;;;;;;;;;12.25;10.75;;;;;;;;5013508;28;45615;-69
2021/10/13 08:13:58;;;;;;;;;14.25;10.75;;;;;;;;5013418;28;45396;-69
2021/10/13 08:16:23;;;;;;;;;15.25;10.25;;;;;;;;5014706;28;45311;-71
2021/10/13 08:18:49;;;;;;;;;9.50;8.00;;;;;;;;5015032;28;45511;-71
2021/10/13 08:21:14;;;;;;;;;11.00;7.75;;;;;;;;5014287;28;46406;-70
2021/10/13 08:23:39;;;;;;;;;13.50;10.00;;;;;;;;5016520;28;45260;-70
2021/10/13 08:26:07;;;;;;;;;13.00;9.00;;;;;;;;5018156;28;45156;-74
2021/10/13 08:28:32;;;;;;;;;10.50;7.00;;;;;;;;5017199;28;45435;-67
2021/10/13 08:30:57;;;;;;;;;13.00;11.00;;;;;;;;5017752;28;45976;-68
2021/10/13 08:33:23;;;;;;;;;9.25;9.25;;;;;;;;5018028;28;45272;-67
2021/10/13 08:35:48;;;;;;;;;12.75;10.75;;;;;;;;5018056;28;45414;-68
2021/10/13 08:38:13;;;;;;;;;12.25;12.25;;;;;;;;5018115;28;45564;-71
2021/10/13 08:40:40;;;;;;;;;13.50;12.00;;;;;;;;5017753;28;45442;-66
2021/10/13 08:43:05;;;;;;;;;13.00;11.25;;;;;;;;5017582;28;45566;-68
2021/10/13 08:45:32;;;;;;;;;11.75;9.75;;;;;;;;5016520;28;45361;-67
2021/10/13 08:47:57;;;;;;;;;15.00;12.00;;;;;;;;5017946;28;45578;-69
2021/10/13 08:50:23;;;;;;;;;17.25;15.00;;;;;;;;5017335;28;46086;-70
2021/10/13 08:52:50;;;;;;;;;12.50;12.50;;;;;;;;5017187;28;45339;-70
2021/10/13 08:55:16;;;;;;;;;11.75;9.50;;;;;;;;5017448;28;45264;-68
2021/10/13 08:57:41;;;;;;;;;15.00;13.00;;;;;;;;5017410;28;45617;-69
2021/10/13 09:00:07;;;;;;;;;15.75;12.00;;;;;;;;5017219;28;46605;-66
2021/10/13 09:02:38;;;;;;;;;16.75;14.75;;;;;;;;5016275;28;45360;-68
2021/10/13 09:05:11;;;;;;;;;12.75;11.50;;;;;;;;5017731;28;45423;-72
2021/10/13 09:07:37;;;;;;;;;13.75;12.25;;;;;;;;5017741;28;45336;-68
2021/10/13 09:10:03;;;;;;;;;13.25;11.25;;;;;;;;5017933;28;46081;-71
2021/10/13 09:12:32;;;;;;;;;12.00;7.50;;;;;;;;5017607;28;45425;-68
2021/10/13 09:15:05;;;;;;;;;11.50;8.00;;;;;;;;5017440;28;45347;-68
2021/10/13 09:17:30;;;;;;;;;8.75;8.50;;;;;;;;5016848;28;45297;-71
2021/10/13 09:19:55;;;;;;;;;6.25;6.25;;;;;;;;5017669;28;45264;-64
2021/10/13 09:22:20;;;;;;;;;11.25;9.25;;;;;;;;5016232;28;45517;-68
2021/10/13 09:24:50;;;;;;;;;12.50;10.00;;;;;;;;5017486;28;45299;-70
2021/10/13 09:27:21;;;;;;;;;8.25;7.75;;;;;;;;5017495;28;45300;-72
2021/10/13 09:29:46;;;;;;;;;14.75;14.75;;;;;;;;5016652;28;46227;-71
2021/10/13 09:32:12;;;;;;;;;18.25;16.50;;;;;;;;5016442;28;45455;-71
2021/10/13 09:34:54;;;;;;;;;13.25;10.50;;;;;;;;5016240;28;45314;-65
2021/10/13 09:37:19;;;;;;;;;12.25;10.25;;;;;;;;5016713;28;45235;-71
2021/10/13 09:40:00;;;;;;;;;14.50;10.75;;;;;;;;5014810;28;46379;-71
2021/10/13 09:42:26;;;;;;;;;6.50;6.50;;;;;;;;5016061;28;45557;-64
2021/10/13 09:44:57;;;;;;;;;11.75;10.00;;;;;;;;5016305;28;45304;-72
2021/10/13 09:47:29;;;;;;;;;10.75;9.00;;;;;;;;5016546;28;45402;-70
2021/10/13 09:49:55;;;;;;;;;19.00;15.00;;;;;;;;5015004;28;46854;-68
2021/10/13 09:52:26;;;;;;;;;11.00;8.25;;;;;;;;5016203;28;45241;-67
2021/10/13 09:55:01;;;;;;;;;7.75;6.75;;;;;;;;5016269;28;45339;-69
2021/10/13 09:57:27;;;;;;;;;16.25;12.75;;;;;;;;5014736;28;45393;-70
2021/10/13 09:59:55;;;;;;;;;8.75;8.75;;;;;;;;5015756;28;46163;-67
2021/10/13 10:02:21;;;;;;;;;17.75;14.50;;;;;;;;5015957;28;45372;-71
2021/10/13 10:04:47;;;;;;;;;9.75;6.50;;;;;;;;5014832;28;45426;-71
2021/10/13 10:07:13;;;;;;;;;6.00;6.00;;;;;;;;5014700;28;45350;-72
2021/10/13 10:09:38;;;;;;;;;9.50;7.75;;;;;;;;5016033;28;46260;-70
2021/10/13 10:12:05;;;;;;;;;15.75;12.75;;;;;;;;5015981;28;45472;-71
2021/10/13 10:14:37;;;;;;;;;5.75;5.50;;;;;;;;5016079;28;45284;-71
2021/10/13 10:17:03;;;;;;;;;10.00;7.75;;;;;;;;5016268;28;45625;-71
2021/10/13 10:19:30;;;;;;;;;9.75;9.25;;;;;;;;5016068;28;45894;-69
2021/10/13 10:21:55;;;;;;;;;15.50;14.00;;;;;;;;5015714;28;45511;-68
2021/10/13 10:24:27;;;;;;;;;6.00;6.00;;;;;;;;5014253;28;45443;-70
2021/10/13 10:26:53;;;;;;;;;9.25;7.00;;;;;;;;5014406;28;45620;-71
2021/10/13 10:29:18;;;;;;;;;4.50;3.75;;;;;;;;5015367;28;45926;-67
2021/10/13 10:31:53;;;;;;;;;7.50;7.50;;;;;;;;5014268;28;45907;-69
2021/10/13 10:34:19;;;;;;;;;3.75;3.00;;;;;;;;5015952;28;45427;-69
2021/10/13 10:36:44;;;;;;;;;13.00;8.50;;;;;;;;5015608;28;46132;-69
2021/10/13 10:39:11;;;;;;;;;3.75;3.50;;;;;;;;5015692;28;46093;-70
2021/10/13 10:41:56;;;;;;;;;11.25;10.25;;;;;;;;5015904;28;45277;-72
2021/10/13 10:44:32;;;;;;;;;5.00;5.00;;;;;;;;5013574;28;45455;-68
2021/10/13 10:46:58;;;;;;;;;9.75;5.75;;;;;;;;5013135;28;45585;-67
2021/10/13 10:49:42;;;;;;;;;11.75;9.75;;;;;;;;5015478;28;46244;-68
2021/10/13 10:52:07;;;;;;;;;5.00;5.00;;;;;;;;5015939;28;45285;-67
2021/10/13 10:54:33;;;;;;;;;6.75;4.25;;;;;;;;5015448;28;45251;-71
2021/10/13 10:56:58;;;;;;;;;8.00;5.00;;;;;;;;5015954;28;45679;-68
2021/10/13 10:59:37;;;;;;;;;5.50;5.00;;;;;;;;5015567;28;46636;-72
2021/10/13 11:02:09;;;;;;;;;8.75;6.50;;;;;;;;5015442;28;45329;-70
2021/10/13 11:04:34;;;;;;;;;7.25;6.75;;;;;;;;5015398;28;45312;-67
2021/10/13 11:07:01;;;;;;;;;12.50;9.50;;;;;;;;5015151;28;45568;-71
2021/10/13 11:09:26;;;;;;;;;10.75;10.50;;;;;;;;5015064;28;46327;-71
2021/10/13 11:11:51;;;;;;;;;9.00;6.00;;;;;;;;5014702;28;45399;-70
2021/10/13 11:14:26;;;;;;;;;5.00;4.50;;;;;;;;5015281;28;45416;-68
2021/10/13 11:16:57;;;;;;;;;20.00;18.50;;;;;;;;5015499;28;45359;-70
2021/10/13 11:19:30;;;;;;;;;5.00;2.75;;;;;;;;5015308;28;45367;-67
2021/10/13 11:22:03;;;;;;;;;13.25;9.25;;;;;;;;5015305;28;45334;-67
2021/10/13 11:24:29;;;;;;;;;3.75;3.50;;;;;;;;5015450;28;45458;-67
2021/10/13 11:26:54;;;;;;;;;11.00;10.75;;;;;;;;5015595;28;45503;-70
2021/10/13 11:29:21;;;;;;;;;6.00;3.25;;;;;;;;5015063;28;45364;-69
2021/10/13 11:31:47;;;;;;;;;5.75;5.75;;;;;;;;5015345;28;45336;-71
2021/10/13 11:34:13;;;;;;;;;4.25;3.00;;;;;;;;5015362;28;45377;-69
2021/10/13 11:36:56;;;;;;;;;3.50;2.00;;;;;;;;5015912;28;45229;-70
2021/10/13 11:39:23;;;;;;;;;2.25;1.50;;;;;;;;5013346;28;47096;-67
2021/10/13 11:41:49;;;;;;;;;4.50;2.25;;;;;;;;5015000;28;45408;-71
2021/10/13 11:44:23;;;;;;;;;4.00;2.00;;;;;;;;5014934;28;45197;-69
2021/10/13 11:47:07;;;;;;;;;3.00;2.00;;;;;;;;5016199;28;45306;-72
2021/10/13 11:49:52;;;;;;;;;2.00;2.00;;;;;;;;5015801;28;45350;-65
2021/10/13 11:52:17;;;;;;;;;3.50;2.25;;;;;;;;5014629;28;45382;-65
2021/10/13 11:54:43;;;;;;;;;5.50;3.00;;;;;;;;5015630;28;45279;-69
2021/10/13 11:57:08;;;;;;;;;7.75;6.25;;;;;;;;5014098;28;45223;-73
2021/10/13 11:59:34;;;;;;;;;4.00;3.00;;;;;;;;5020010;28;46453;-69
2021/10/13 12:02:13;;;;;;;;;2.25;2.00;;;;;;;;5019759;28;45246;-69
2021/10/13 12:04:49;;;;;;;;;2.00;1.50;;;;;;;;5018162;28;45339;-69
2021/10/13 12:07:24;;;;;;;;;4.00;2.50;;;;;;;;5017178;28;45756;-70
2021/10/13 12:09:56;;;;;;;;;7.25;4.00;;;;;;;;5017973;28;45525;-72
2021/10/13 12:12:24;;;;;;;;;3.00;1.00;;;;;;;;5000196;28;45480;-72
2021/10/13 12:14:49;;;;;;;;;2.00;2.00;;;;;;;;5018227;28;45422;-69
2021/10/13 12:17:25;;;;;;;;;2.00;2.00;;;;;;;;5017016;28;45356;-69
2021/10/13 12:19:50;;;;;;;;;2.50;2.50;;;;;;;;5017937;28;46260;-67
2021/10/13 12:22:16;;;;;;;;;1.00;1.00;;;;;;;;5016584;28;45885;-67
2021/10/13 12:24:41;;;;;;;;;3.50;3.50;;;;;;;;5018555;28;45387;-69
2021/10/13 12:27:08;;;;;;;;;5.50;4.00;;;;;;;;5018304;28;45376;-71
2021/10/13 12:29:38;;;;;;;;;0.50;0.50;;;;;;;;5016472;28;47373;-70
2021/10/13 12:32:15;;;;;;;;;2.00;1.00;;;;;;;;5017902;28;45336;-70
2021/10/13 12:34:41;;;;;;;;;9.25;6.50;;;;;;;;5017525;28;45461;-66
2021/10/13 12:37:06;;;;;;;;;3.50;2.00;;;;;;;;5017497;28;45430;-68
2021/10/13 12:39:34;;;;;;;;;1.50;1.00;;;;;;;;5017198;28;46519;-70
2021/10/13 12:42:06;;;;;;;;;2.00;2.00;;;;;;;;5017751;28;45396;-66
2021/10/13 12:44:32;;;;;;;;;2.00;1.50;;;;;;;;5016017;28;45267;-70
2021/10/13 12:47:00;;;;;;;;;7.50;6.50;;;;;;;;5017319;28;45291;-67
2021/10/13 12:49:28;;;;;;;;;3.00;1.50;;;;;;;;5017433;28;46190;-69
2021/10/13 12:52:00;;;;;;;;;2.00;1.00;;;;;;;;5015613;28;45387;-69
2021/10/13 12:54:29;;;;;;;;;2.25;1.00;;;;;;;;5017161;28;45414;-68
2021/10/13 12:56:55;;;;;;;;;1.00;1.00;;;;;;;;5017286;28;45493;-68
2021/10/13 12:59:21;;;;;;;;;7.75;5.00;;;;;;;;5017077;28;45524;-67
2021/10/13 13:01:46;;;;;;;;;2.75;2.75;;;;;;;;5017683;28;45748;-70
2021/10/13 13:04:11;;;;;;;;;12.25;8.00;;;;;;;;5016250;28;45391;-71
2021/10/13 13:06:38;;;;;;;;;6.25;6.25;;;;;;;;5017606;28;45207;-70
2021/10/13 13:09:03;;;;;;;;;3.25;1.75;;;;;;;;5014909;28;47577;-69
2021/10/13 13:11:28;;;;;;;;;2.50;1.00;;;;;;;;5017110;28;45802;-69
2021/10/13 13:13:53;;;;;;;;;2.50;1.50;;;;;;;;5016074;28;45269;-69
2021/10/13 13:16:24;;;;;;;;;2.00;1.50;;;;;;;;5017563;28;45158;-67
2021/10/13 13:18:49;;;;;;;;;2.50;2.00;;;;;;;;5016638;28;46533;-68
2021/10/13 13:21:14;;;;;;;;;4.25;4.00;;;;;;;;5017262;28;45513;-70
2021/10/13 13:23:40;;;;;;;;;8.75;3.75;;;;;;;;5017266;28;45402;-70
2021/10/13 13:26:05;;;;;;;;;2.25;2.00;;;;;;;;5017568;28;45617;-72
2021/10/13 13:28:30;;;;;;;;;6.00;4.75;;;;;;;;5016980;28;46303;-66
2021/10/13 13:30:55;;;;;;;;;3.25;3.25;;;;;;;;5016949;28;45325;-69
2021/10/13 13:33:21;;;;;;;;;3.75;1.75;;;;;;;;5017088;28;45379;-69
2021/10/13 13:35:46;;;;;;;;;5.00;3.00;;;;;;;;5017427;28;45441;-68
2021/10/13 13:38:11;;;;;;;;;4.00;1.50;;;;;;;;5016694;28;45447;-67
2021/10/13 13:40:38;;;;;;;;;5.25;2.00;;;;;;;;5016821;28;45275;-69
2021/10/13 13:43:05;;;;;;;;;3.50;3.00;;;;;;;;5016806;28;45426;-70
2021/10/13 13:45:30;;;;;;;;;3.50;3.00;;;;;;;;5015690;28;45593;-69
2021/10/13 13:47:55;;;;;;;;;7.00;5.50;;;;;;;;5016369;28;45965;-68
2021/10/13 13:50:23;;;;;;;;;2.75;1.50;;;;;;;;5016394;28;45311;-66
2021/10/13 13:52:48;;;;;;;;;3.00;2.25;;;;;;;;5016783;28;45492;-69
2021/10/13 13:55:14;;;;;;;;;2.00;2.00;;;;;;;;5016618;28;45498;-70
2021/10/13 13:57:39;;;;;;;;;2.25;2.25;;;;;;;;5016181;28;46251;-74
2021/10/13 14:00:04;;;;;;;;;2.00;1.00;;;;;;;;5015079;28;45358;-70
2021/10/13 14:02:30;;;;;;;;;3.50;2.00;;;;;;;;5016406;28;45338;-71
2021/10/13 14:04:56;;;;;;;;;2.50;1.00;;;;;;;;5015509;28;45451;-72
2021/10/13 14:07:21;;;;;;;;;5.00;2.00;;;;;;;;5016474;28;46201;-69
2021/10/13 14:09:46;;;;;;;;;3.00;1.00;;;;;;;;5017529;28;45296;-69
2021/10/13 14:12:11;;;;;;;;;5.50;3.25;;;;;;;;5017150;28;45276;-70
2021/10/13 14:14:37;;;;;;;;;4.00;3.25;;;;;;;;5016656;28;45205;-70
2021/10/13 14:17:02;;;;;;;;;3.00;2.00;;;;;;;;5016671;28;45686;-68
2021/10/13 14:19:27;;;;;;;;;5.00;1.00;;;;;;;;5015289;28;45621;-65
2021/10/13 14:21:52;;;;;;;;;4.00;3.00;;;;;;;;5016390;28;45229;-70
2021/10/13 14:24:18;;;;;;;;;1.75;1.00;;;;;;;;5017209;28;45485;-67
2021/10/13 14:26:44;;;;;;;;;2.50;2.00;;;;;;;;5016307;28;46566;-70